Time;durP1;ratioP1;P1;durP2;ratioP2;P2;SDS_P1;SDS_P2;PMS_P1;PMS_P2;Temp;Humidity;BMP_temperature;BMP_pressure;BME280_temperature;BME280_humidity;BME280_pressure;Samples;Min_cycle;Max_cycle;Signal;HPM_P1;HPM_P2
2022/01/27 00:00:04;;;;;;;23.73;11.68;;;6.20;99.90;;;;;;5063544;28;20073;-71
2022/01/27 00:02:44;;;;;;;23.88;12.45;;;6.20;99.90;;;;;;5051222;28;20049;-72
2022/01/27 00:05:16;;;;;;;24.65;11.73;;;6.20;99.90;;;;;;5051584;28;20057;-72
2022/01/27 00:07:44;;;;;;;26.95;12.30;;;6.20;99.90;;;;;;5051903;28;20052;-71
2022/01/27 00:10:22;;;;;;;24.70;11.73;;;6.20;99.90;;;;;;5051357;28;20053;-73
2022/01/27 00:12:49;;;;;;;25.52;11.82;;;6.20;99.90;;;;;;5051305;28;20060;-71
2022/01/27 00:15:17;;;;;;;22.45;11.95;;;6.20;99.90;;;;;;5051841;28;20400;-71
2022/01/27 00:17:47;;;;;;;27.25;11.55;;;6.20;99.90;;;;;;5051849;28;20524;-72
2022/01/27 00:20:16;;;;;;;22.83;10.48;;;6.20;99.90;;;;;;5050918;28;20481;-71
2022/01/27 00:22:43;;;;;;;22.98;12.82;;;6.20;99.90;;;;;;5051813;28;20057;-72
2022/01/27 00:25:13;;;;;;;25.70;12.23;;;6.20;99.90;;;;;;5051081;28;20134;-72
2022/01/27 00:27:40;;;;;;;25.40;13.10;;;6.10;99.90;;;;;;5051473;28;20099;-71
2022/01/27 00:30:10;;;;;;;24.42;12.57;;;6.20;99.90;;;;;;5058103;28;20089;-72
2022/01/27 00:32:37;;;;;;;25.40;13.30;;;6.10;99.90;;;;;;5031179;28;20057;-72
2022/01/27 00:35:05;;;;;;;27.55;11.80;;;6.10;99.90;;;;;;5031431;28;20300;-71
2022/01/27 00:37:32;;;;;;;26.25;12.80;;;6.10;99.90;;;;;;5050723;28;20107;-72
2022/01/27 00:39:59;;;;;;;25.52;12.27;;;6.20;99.90;;;;;;5050860;28;20444;-72
2022/01/27 00:42:29;;;;;;;29.33;14.02;;;6.10;99.90;;;;;;5051322;28;20087;-71
2022/01/27 00:44:56;;;;;;;22.35;13.23;;;6.00;99.90;;;;;;5051305;28;20049;-71
2022/01/27 00:47:23;;;;;;;26.48;12.70;;;6.00;99.90;;;;;;5053444;28;20535;-71
2022/01/27 00:49:50;;;;;;;23.45;12.68;;;6.00;99.90;;;;;;5056535;28;20053;-71
2022/01/27 00:52:26;;;;;;;33.10;13.05;;;5.90;99.90;;;;;;5055185;28;20126;-73
2022/01/27 00:54:53;;;;;;;24.85;12.73;;;5.90;99.90;;;;;;5054670;28;20049;-71
2022/01/27 00:57:34;;;;;;;24.80;13.52;;;5.90;99.90;;;;;;5055961;28;20067;-72
2022/01/27 01:00:03;;;;;;;24.25;13.20;;;6.00;99.90;;;;;;5054729;28;20051;-71
2022/01/27 01:02:40;;;;;;;25.73;12.65;;;5.90;99.90;;;;;;5054733;28;20051;-71
2022/01/27 01:05:21;;;;;;;21.45;12.65;;;5.90;99.90;;;;;;5055061;28;20140;-72
2022/01/27 01:07:51;;;;;;;26.13;12.23;;;6.00;99.90;;;;;;5054220;28;20106;-71
2022/01/27 01:15:48;;;;;;;20.98;11.85;;;5.90;99.90;;;;;;5041401;28;20045;-71
2022/01/27 01:18:28;;;;;;;22.65;12.00;;;5.90;99.90;;;;;;5056028;28;20145;-71
2022/01/27 01:21:20;;;;;;;21.50;11.55;;;5.90;99.90;;;;;;5054723;28;20493;-72
2022/01/27 01:29:29;;;;;;;25.73;14.32;;;5.90;99.90;;;;;;5053899;28;20049;-72
2022/01/27 01:32:13;;;;;;;27.80;14.32;;;5.80;99.90;;;;;;5071175;28;20053;-71
2022/01/27 01:34:44;;;;;;;25.38;13.15;;;5.70;99.90;;;;;;5071178;28;20059;-70
2022/01/27 01:37:11;;;;;;;36.42;14.00;;;5.60;99.90;;;;;;5070292;28;20055;-71
2022/01/27 01:39:39;;;;;;;29.65;13.88;;;5.60;99.90;;;;;;5055662;28;20106;-70
2022/01/27 01:42:10;;;;;;;30.77;13.85;;;5.60;99.90;;;;;;5054314;28;20493;-71
2022/01/27 01:44:37;;;;;;;24.45;14.13;;;5.60;99.90;;;;;;5068870;28;20051;-71
2022/01/27 01:47:07;;;;;;;27.67;14.32;;;5.50;99.90;;;;;;5071090;28;20118;-71
2022/01/27 01:49:34;;;;;;;28.65;14.07;;;5.50;99.90;;;;;;5070435;28;20053;-71
2022/01/27 01:52:06;;;;;;;27.58;14.93;;;5.50;99.90;;;;;;5070687;28;20053;-71
2022/01/27 01:54:33;;;;;;;28.85;14.23;;;5.50;99.90;;;;;;5053939;28;20065;-71
2022/01/27 01:57:00;;;;;;;33.60;14.90;;;5.50;99.90;;;;;;5053339;28;20053;-71
2022/01/27 01:59:27;;;;;;;33.42;15.15;;;5.50;99.90;;;;;;5053008;28;20068;-71
2022/01/27 02:01:54;;;;;;;27.75;13.50;;;5.50;99.90;;;;;;5053874;28;20053;-70
2022/01/27 02:04:22;;;;;;;30.58;14.55;;;5.50;99.90;;;;;;5053584;28;20126;-71
2022/01/27 02:06:52;;;;;;;27.13;14.00;;;5.50;99.90;;;;;;5054156;28;20447;-70
2022/01/27 02:09:29;;;;;;;27.23;14.98;;;5.60;99.90;;;;;;5055302;28;20076;-71
2022/01/27 02:20:11;;;;;;;35.78;16.92;;;5.50;99.90;;;;;;5054511;28;20123;-71
2022/01/27 02:22:39;;;;;;;26.20;15.00;;;5.40;99.90;;;;;;5053628;28;20493;-71
2022/01/27 02:25:07;;;;;;;26.42;14.48;;;5.50;99.90;;;;;;5052900;28;20477;-71
2022/01/27 02:27:34;;;;;;;25.55;13.60;;;5.40;99.90;;;;;;5053180;28;20084;-71
2022/01/27 02:30:01;;;;;;;31.73;16.45;;;5.50;99.90;;;;;;5053118;28;20072;-71
2022/01/27 02:32:28;;;;;;;32.40;16.50;;;5.60;99.90;;;;;;5054078;28;20053;-72
2022/01/27 02:34:55;;;;;;;28.30;15.15;;;5.60;99.90;;;;;;5070061;28;20063;-70
2022/01/27 02:37:23;;;;;;;30.15;15.85;;;5.60;99.90;;;;;;5070105;28;20045;-71
2022/01/27 02:39:50;;;;;;;29.67;16.55;;;5.60;99.90;;;;;;5049195;28;20456;-70
2022/01/27 02:42:22;;;;;;;31.80;16.58;;;5.80;99.90;;;;;;5033155;28;20548;-70
2022/01/27 02:45:01;;;;;;;28.58;15.13;;;5.70;99.90;;;;;;5050413;28;20153;-72
2022/01/27 02:47:28;;;;;;;33.25;16.90;;;5.70;99.90;;;;;;5033652;28;20493;-71
2022/01/27 02:49:55;;;;;;;32.35;15.98;;;5.70;99.90;;;;;;5034564;28;20046;-71
2022/01/27 02:52:23;;;;;;;32.00;17.30;;;5.70;99.90;;;;;;5034396;28;20053;-70
2022/01/27 02:54:50;;;;;;;28.52;15.98;;;5.70;99.90;;;;;;5052484;28;20476;-71
2022/01/27 02:57:19;;;;;;;32.47;16.80;;;5.70;99.90;;;;;;5069706;28;20053;-71
2022/01/27 02:59:45;;;;;;;37.38;17.67;;;5.70;99.90;;;;;;5053183;28;20041;-71
2022/01/27 03:02:12;;;;;;;38.13;16.23;;;5.70;99.90;;;;;;5052633;28;20049;-71
2022/01/27 03:04:39;;;;;;;37.60;17.42;;;5.70;99.90;;;;;;5052796;28;20053;-70
2022/01/27 03:07:08;;;;;;;29.80;16.30;;;5.70;99.90;;;;;;5052229;28;20149;-71
2022/01/27 03:09:37;;;;;;;31.10;16.52;;;5.80;99.90;;;;;;5053642;28;20111;-71
2022/01/27 03:12:07;;;;;;;28.77;16.70;;;5.80;99.90;;;;;;5052378;28;20111;-70
2022/01/27 03:14:35;;;;;;;33.08;16.52;;;5.80;99.90;;;;;;5052608;28;20520;-70
2022/01/27 03:17:04;;;;;;;31.80;18.10;;;5.80;99.90;;;;;;5052653;28;20057;-70
2022/01/27 03:19:31;;;;;;;32.28;17.15;;;5.80;99.90;;;;;;5049235;28;20402;-71
2022/01/27 03:22:00;;;;;;;33.72;16.23;;;5.80;99.90;;;;;;5065512;28;20057;-72
2022/01/27 03:24:27;;;;;;;32.63;18.35;;;5.80;99.90;;;;;;5032763;28;20056;-72
2022/01/27 03:26:56;;;;;;;33.13;17.23;;;5.80;99.90;;;;;;5032615;28;20057;-71
2022/01/27 03:29:24;;;;;;;33.33;16.83;;;5.80;99.90;;;;;;5035952;28;20048;-71
2022/01/27 03:31:51;;;;;;;32.70;16.40;;;5.90;99.90;;;;;;5068824;28;20164;-70
2022/01/27 03:34:18;;;;;;;33.10;15.85;;;5.80;99.90;;;;;;5068826;28;20045;-71
2022/01/27 03:36:45;;;;;;;31.60;16.40;;;5.90;99.90;;;;;;5068161;28;20111;-71
2022/01/27 03:39:16;;;;;;;30.67;15.60;;;5.90;99.90;;;;;;5051964;28;20447;-71
2022/01/27 03:41:49;;;;;;;31.83;15.98;;;5.90;99.90;;;;;;5052368;28;20048;-72
2022/01/27 03:44:18;;;;;;;29.70;16.05;;;5.90;99.90;;;;;;5068432;28;20390;-72
2022/01/27 03:46:45;;;;;;;29.83;15.85;;;5.90;99.90;;;;;;5053309;28;20080;-72
2022/01/27 03:49:12;;;;;;;31.27;16.02;;;5.90;99.90;;;;;;5052821;28;20103;-72
2022/01/27 03:51:39;;;;;;;30.33;16.48;;;6.00;99.90;;;;;;5051905;28;20055;-71
2022/01/27 03:54:06;;;;;;;27.40;15.57;;;5.90;99.90;;;;;;5068201;28;20060;-71
2022/01/27 03:56:33;;;;;;;30.42;14.65;;;5.90;99.90;;;;;;5051026;28;20102;-70
2022/01/27 03:58:59;;;;;;;30.92;16.42;;;6.00;99.90;;;;;;5051863;28;20057;-71
2022/01/27 04:01:28;;;;;;;28.33;14.75;;;5.90;99.90;;;;;;5052831;28;20080;-70
2022/01/27 04:03:58;;;;;;;29.23;15.50;;;6.00;99.90;;;;;;5051265;28;20056;-71
2022/01/27 04:06:33;;;;;;;31.75;15.25;;;5.90;99.90;;;;;;5051854;28;20056;-71
2022/01/27 04:09:00;;;;;;;29.73;16.85;;;5.90;99.90;;;;;;5051793;28;20052;-71
2022/01/27 04:11:27;;;;;;;30.10;16.77;;;5.90;99.90;;;;;;5050735;28;20072;-72
2022/01/27 04:13:54;;;;;;;30.05;15.18;;;5.90;99.90;;;;;;5051811;28;20053;-71
2022/01/27 04:16:21;;;;;;;32.33;16.33;;;5.90;99.90;;;;;;5052625;28;20049;-70
2022/01/27 04:18:49;;;;;;;27.77;14.65;;;6.00;99.90;;;;;;5051095;28;20115;-71
2022/01/27 04:21:17;;;;;;;30.00;15.05;;;5.90;99.90;;;;;;5052082;28;20122;-71
2022/01/27 04:23:44;;;;;;;27.50;14.25;;;6.00;99.90;;;;;;5056125;28;20084;-72
2022/01/27 04:26:12;;;;;;;30.42;15.55;;;6.00;99.90;;;;;;5055351;28;20057;-72
2022/01/27 04:28:40;;;;;;;31.92;15.02;;;6.00;99.90;;;;;;5055962;28;20414;-72
2022/01/27 04:31:09;;;;;;;32.42;14.80;;;6.00;99.90;;;;;;5056309;28;20448;-71
2022/01/27 04:33:38;;;;;;;25.45;14.60;;;6.10;99.90;;;;;;5072660;28;20056;-72
2022/01/27 04:36:14;;;;;;;32.05;15.00;;;6.10;99.90;;;;;;5072125;28;20076;-72
2022/01/27 04:38:46;;;;;;;35.65;15.32;;;6.10;99.90;;;;;;5071561;28;20049;-72
2022/01/27 04:41:18;;;;;;;26.27;13.65;;;6.10;99.90;;;;;;5071990;28;20045;-71
2022/01/27 04:43:51;;;;;;;34.95;15.10;;;6.00;99.90;;;;;;5072111;28;20044;-71
2022/01/27 04:46:27;;;;;;;32.25;13.68;;;6.00;99.90;;;;;;5055206;28;20052;-71
2022/01/27 04:48:57;;;;;;;33.03;14.77;;;6.00;99.90;;;;;;5072402;28;20471;-71
2022/01/27 04:51:27;;;;;;;31.20;15.10;;;6.00;99.90;;;;;;5072347;28;20045;-71
2022/01/27 04:54:00;;;;;;;38.30;14.90;;;6.00;99.90;;;;;;5071554;28;20400;-71
2022/01/27 04:56:29;;;;;;;32.78;15.32;;;6.00;99.90;;;;;;5055738;28;20052;-71
2022/01/27 04:58:59;;;;;;;28.38;13.43;;;6.00;99.90;;;;;;5054987;28;20056;-71
2022/01/27 05:01:31;;;;;;;29.65;12.90;;;6.00;99.90;;;;;;5055866;28;20064;-70
2022/01/27 05:04:02;;;;;;;28.25;14.20;;;6.00;99.90;;;;;;5057044;28;20060;-70
2022/01/27 05:06:30;;;;;;;30.67;15.07;;;6.00;99.90;;;;;;5054871;28;20131;-72
2022/01/27 05:08:57;;;;;;;28.58;13.75;;;6.00;99.90;;;;;;5055773;28;20476;-71
2022/01/27 05:11:27;;;;;;;35.63;15.07;;;6.00;99.90;;;;;;5055012;28;20492;-71
2022/01/27 05:13:58;;;;;;;33.63;15.25;;;6.10;99.90;;;;;;5052637;28;20555;-70
2022/01/27 05:16:27;;;;;;;28.67;14.27;;;6.00;99.90;;;;;;5052577;28;20167;-69
2022/01/27 05:18:54;;;;;;;32.85;15.20;;;6.00;99.90;;;;;;5061364;28;20048;-70
2022/01/27 05:21:21;;;;;;;35.33;13.27;;;5.90;99.90;;;;;;5061170;28;20127;-70
2022/01/27 05:23:49;;;;;;;28.42;14.60;;;5.90;99.90;;;;;;5063607;28;20049;-69
2022/01/27 05:26:16;;;;;;;35.25;16.25;;;5.90;99.90;;;;;;5064384;28;20057;-70
2022/01/27 05:28:42;;;;;;;30.85;16.58;;;5.90;99.90;;;;;;5063956;28;20052;-70
2022/01/27 05:31:09;;;;;;;46.88;15.57;;;5.80;99.90;;;;;;5065404;28;20067;-70
2022/01/27 05:33:36;;;;;;;32.53;14.75;;;5.80;99.90;;;;;;5062479;28;20060;-70
2022/01/27 05:36:03;;;;;;;35.72;16.05;;;5.80;99.90;;;;;;5063822;28;20071;-69
2022/01/27 05:38:30;;;;;;;31.92;15.15;;;5.80;99.90;;;;;;5064578;28;20041;-70
2022/01/27 05:40:58;;;;;;;33.97;15.70;;;5.80;99.90;;;;;;5065710;28;20091;-70
2022/01/27 05:43:25;;;;;;;28.75;14.80;;;5.90;99.90;;;;;;5061512;28;20075;-70
2022/01/27 05:45:52;;;;;;;38.58;14.38;;;6.00;99.90;;;;;;5055919;28;20053;-70
2022/01/27 05:48:19;;;;;;;37.38;16.80;;;5.90;99.90;;;;;;5053514;28;20087;-70
2022/01/27 05:50:45;;;;;;;27.05;15.15;;;5.90;99.90;;;;;;5052562;28;20090;-71
2022/01/27 05:53:12;;;;;;;34.13;14.35;;;5.90;99.90;;;;;;5053475;28;20103;-70
2022/01/27 05:55:39;;;;;;;36.85;14.85;;;5.90;99.90;;;;;;5051992;28;20080;-70
2022/01/27 05:58:07;;;;;;;35.38;14.77;;;6.00;99.90;;;;;;5053552;28;20088;-70
2022/01/27 06:00:34;;;;;;;33.30;15.15;;;5.90;99.90;;;;;;5053754;28;20080;-71
2022/01/27 06:03:02;;;;;;;28.63;14.27;;;6.00;99.90;;;;;;5052788;28;20052;-71
2022/01/27 06:05:29;;;;;;;30.38;15.32;;;5.90;99.90;;;;;;5052582;28;20111;-71
2022/01/27 06:07:56;;;;;;;42.78;16.05;;;5.90;99.90;;;;;;5053433;28;20099;-71
2022/01/27 06:10:23;;;;;;;32.00;15.93;;;6.00;99.90;;;;;;5049928;28;20095;-70
2022/01/27 06:12:51;;;;;;;34.10;15.70;;;5.90;99.90;;;;;;5050606;28;20114;-71
2022/01/27 06:15:19;;;;;;;42.65;16.25;;;5.90;99.90;;;;;;5053895;28;20041;-71
2022/01/27 06:17:46;;;;;;;36.78;14.10;;;5.90;99.90;;;;;;5053526;28;20080;-69
2022/01/27 06:20:13;;;;;;;34.58;14.52;;;5.90;99.90;;;;;;5052208;28;20053;-71
2022/01/27 06:22:40;;;;;;;31.67;15.50;;;6.00;99.90;;;;;;5052703;28;20045;-70
2022/01/27 06:25:09;;;;;;;29.88;14.20;;;6.00;99.90;;;;;;5068665;28;20118;-71
2022/01/27 06:27:36;;;;;;;33.17;13.93;;;6.00;99.90;;;;;;5052022;28;20052;-71
2022/01/27 06:30:06;;;;;;;32.58;14.75;;;6.00;99.90;;;;;;5069099;28;20486;-71
2022/01/27 06:32:35;;;;;;;30.48;14.45;;;6.00;99.90;;;;;;5049674;28;20080;-72
2022/01/27 06:35:03;;;;;;;24.88;12.25;;;6.00;99.90;;;;;;5052109;28;20045;-72
2022/01/27 06:37:31;;;;;;;33.40;13.65;;;6.10;99.90;;;;;;5045446;28;20063;-70
2022/01/27 06:39:58;;;;;;;27.73;13.77;;;6.10;99.90;;;;;;5049031;28;20094;-71
2022/01/27 06:42:25;;;;;;;29.42;12.98;;;6.20;99.90;;;;;;5048486;28;20057;-71
2022/01/27 06:44:52;;;;;;;29.85;12.82;;;6.20;99.90;;;;;;5047087;28;20060;-72
2022/01/27 06:47:18;;;;;;;31.63;14.75;;;6.20;99.90;;;;;;5049430;28;20056;-71
2022/01/27 06:49:47;;;;;;;35.35;15.10;;;6.20;99.90;;;;;;5049721;28;20049;-71
2022/01/27 06:52:14;;;;;;;25.85;12.38;;;6.20;99.90;;;;;;5062180;28;20134;-71
2022/01/27 06:54:41;;;;;;;28.27;12.35;;;6.20;99.90;;;;;;5050345;28;20060;-70
2022/01/27 06:57:08;;;;;;;24.98;11.75;;;6.20;99.90;;;;;;5067547;28;20131;-71
2022/01/27 06:59:36;;;;;;;29.00;12.85;;;6.30;99.90;;;;;;5050150;28;20045;-71
2022/01/27 07:02:03;;;;;;;31.77;13.73;;;6.30;99.90;;;;;;5066659;28;20110;-71
2022/01/27 07:04:30;;;;;;;28.67;11.18;;;6.30;99.90;;;;;;5050147;28;20098;-71
2022/01/27 07:06:58;;;;;;;26.85;11.27;;;6.30;99.90;;;;;;5066656;28;20057;-71
2022/01/27 07:09:25;;;;;;;34.63;13.40;;;6.30;99.90;;;;;;5048979;28;20098;-71
2022/01/27 07:11:52;;;;;;;31.38;12.10;;;6.30;99.90;;;;;;5064264;28;20107;-71
2022/01/27 07:14:19;;;;;;;23.90;12.00;;;6.40;99.90;;;;;;5049759;28;20053;-69
2022/01/27 07:16:46;;;;;;;25.48;11.27;;;6.30;99.90;;;;;;5049204;28;20508;-70
2022/01/27 07:19:13;;;;;;;20.70;10.93;;;6.40;99.90;;;;;;5050331;28;20060;-69
2022/01/27 07:21:40;;;;;;;20.92;11.75;;;6.40;99.90;;;;;;5049363;28;20072;-69
2022/01/27 07:24:08;;;;;;;26.02;11.05;;;6.40;99.90;;;;;;5049614;28;20567;-69
2022/01/27 07:26:35;;;;;;;23.92;11.75;;;6.40;99.90;;;;;;5050001;28;20759;-71
2022/01/27 07:29:02;;;;;;;21.98;10.98;;;6.50;99.90;;;;;;5049388;28;20550;-70
2022/01/27 07:31:29;;;;;;;29.17;12.48;;;6.50;99.90;;;;;;5065857;28;20075;-72
2022/01/27 07:33:56;;;;;;;22.75;9.75;;;6.50;99.90;;;;;;5049687;28;20390;-70
2022/01/27 07:36:23;;;;;;;20.52;10.27;;;6.50;99.90;;;;;;5049046;28;20064;-71
2022/01/27 07:38:50;;;;;;;34.83;11.02;;;6.60;99.90;;;;;;5051915;28;20099;-71
2022/01/27 07:41:19;;;;;;;27.98;11.85;;;6.70;99.90;;;;;;5062823;28;20141;-70
2022/01/27 07:43:46;;;;;;;35.08;12.43;;;6.60;99.90;;;;;;5050408;28;20048;-71
2022/01/27 07:46:13;;;;;;;25.50;11.95;;;6.60;99.90;;;;;;5045296;28;20053;-71
2022/01/27 07:48:40;;;;;;;25.92;11.93;;;6.70;99.90;;;;;;5049612;28;20481;-72
2022/01/27 07:51:08;;;;;;;28.05;12.48;;;6.70;99.90;;;;;;5067268;28;20392;-72
2022/01/27 07:53:35;;;;;;;24.65;10.68;;;6.80;99.90;;;;;;5067293;28;20077;-70
2022/01/27 07:56:03;;;;;;;28.60;11.13;;;6.80;99.90;;;;;;5066802;28;20539;-71
2022/01/27 07:58:32;;;;;;;29.08;11.32;;;6.80;99.90;;;;;;5050203;28;20053;-69
2022/01/27 08:00:59;;;;;;;22.85;10.75;;;6.90;99.90;;;;;;5066735;28;20095;-71
2022/01/27 08:03:26;;;;;;;26.65;9.90;;;6.90;99.90;;;;;;5066178;28;20053;-70
2022/01/27 08:05:53;;;;;;;28.55;10.27;;;7.00;99.90;;;;;;5051832;28;20488;-70
2022/01/27 08:08:20;;;;;;;26.92;10.43;;;7.00;99.90;;;;;;5050293;28;20061;-70
2022/01/27 08:10:48;;;;;;;24.35;9.82;;;7.10;99.90;;;;;;5049839;28;20099;-70
2022/01/27 08:13:15;;;;;;;31.35;11.15;;;7.10;99.90;;;;;;5049922;28;20485;-70
2022/01/27 08:15:43;;;;;;;25.08;9.93;;;7.10;99.90;;;;;;5050477;28;20386;-71
2022/01/27 08:18:10;;;;;;;21.23;9.15;;;7.10;99.90;;;;;;5049378;28;20057;-70
2022/01/27 08:20:37;;;;;;;24.15;10.15;;;7.10;99.90;;;;;;5047807;28;20439;-70
2022/01/27 08:23:05;;;;;;;20.15;9.15;;;7.10;99.90;;;;;;5066421;28;20053;-71
2022/01/27 08:25:33;;;;;;;22.17;9.20;;;7.20;99.90;;;;;;5049862;28;20060;-70
2022/01/27 08:28:03;;;;;;;22.52;9.15;;;7.20;99.90;;;;;;5049010;28;20064;-70
2022/01/27 08:30:37;;;;;;;25.03;9.30;;;7.30;99.90;;;;;;5049615;28;20045;-71
2022/01/27 08:33:12;;;;;;;26.42;8.73;;;7.30;99.90;;;;;;5066459;28;20694;-72
2022/01/27 08:35:39;;;;;;;20.92;8.27;;;7.40;99.90;;;;;;5049750;28;20060;-71
2022/01/27 08:38:06;;;;;;;21.73;7.80;;;7.40;99.90;;;;;;5044016;28;20597;-71
2022/01/27 08:40:33;;;;;;;17.98;7.40;;;7.40;99.90;;;;;;5066295;28;20138;-71
2022/01/27 08:43:00;;;;;;;22.33;8.25;;;7.40;99.90;;;;;;5065868;28;20142;-72
2022/01/27 08:45:27;;;;;;;26.13;9.30;;;7.40;99.90;;;;;;5049550;28;20045;-71
2022/01/27 08:47:57;;;;;;;22.48;8.50;;;7.40;99.90;;;;;;5050080;28;20068;-70
2022/01/27 08:50:26;;;;;;;20.88;8.43;;;7.50;99.90;;;;;;5049426;28;20057;-71
2022/01/27 08:52:53;;;;;;;24.05;8.80;;;7.50;99.90;;;;;;5049139;28;20492;-71
2022/01/27 08:55:21;;;;;;;18.45;8.18;;;7.40;99.90;;;;;;5065725;28;20053;-70
2022/01/27 08:57:48;;;;;;;30.23;8.57;;;7.50;99.90;;;;;;5049871;28;20053;-70
2022/01/27 09:00:16;;;;;;;19.08;6.82;;;7.50;99.90;;;;;;5048857;28;20080;-71
2022/01/27 09:02:43;;;;;;;22.70;6.90;;;7.50;99.90;;;;;;5066272;28;20504;-72
2022/01/27 09:05:10;;;;;;;21.17;7.47;;;7.50;99.90;;;;;;5049501;28;20049;-71
2022/01/27 09:07:38;;;;;;;24.17;7.75;;;7.50;99.90;;;;;;5050486;28;20405;-73
2022/01/27 09:10:06;;;;;;;23.65;6.93;;;7.50;99.90;;;;;;5064823;28;20057;-71
2022/01/27 09:12:34;;;;;;;20.10;6.68;;;7.60;99.90;;;;;;5070137;28;20400;-71
2022/01/27 09:15:02;;;;;;;18.42;5.68;;;7.60;99.90;;;;;;5069644;28;20138;-71
2022/01/27 09:17:31;;;;;;;16.50;6.35;;;7.60;99.90;;;;;;5053544;28;20056;-73
2022/01/27 09:19:58;;;;;;;23.85;6.40;;;7.60;99.90;;;;;;5069027;28;20526;-73
2022/01/27 09:22:25;;;;;;;19.25;5.93;;;7.70;99.90;;;;;;5057264;28;20049;-70
2022/01/27 09:24:57;;;;;;;24.52;6.22;;;7.70;99.90;;;;;;5052914;28;20132;-70
2022/01/27 09:27:25;;;;;;;13.27;5.40;;;7.80;99.90;;;;;;5051006;28;20064;-71
2022/01/27 09:29:53;;;;;;;18.90;6.28;;;7.80;99.90;;;;;;5069339;28;20558;-73
2022/01/27 09:32:20;;;;;;;20.92;7.10;;;7.90;99.90;;;;;;5052766;28;20080;-71
2022/01/27 09:34:48;;;;;;;25.25;6.15;;;7.90;99.90;;;;;;5051762;28;20099;-70
2022/01/27 09:37:15;;;;;;;18.05;5.70;;;7.90;99.90;;;;;;5052519;28;20057;-73
2022/01/27 09:39:43;;;;;;;15.23;5.47;;;8.00;99.90;;;;;;5068759;28;20057;-72
2022/01/27 09:42:12;;;;;;;18.23;6.28;;;7.90;99.90;;;;;;5065510;28;20103;-72
2022/01/27 09:44:42;;;;;;;17.80;5.65;;;7.90;99.90;;;;;;5053852;28;20055;-72
2022/01/27 09:47:12;;;;;;;19.75;5.78;;;8.00;99.90;;;;;;5072434;28;20052;-72
2022/01/27 09:49:42;;;;;;;14.55;5.57;;;8.00;99.90;;;;;;5069193;28;20153;-70
2022/01/27 09:52:09;;;;;;;19.20;5.63;;;8.00;99.90;;;;;;5054004;28;20563;-71
2022/01/27 09:54:37;;;;;;;23.20;6.68;;;8.10;99.90;;;;;;5071506;28;20076;-72
2022/01/27 09:57:06;;;;;;;22.65;6.05;;;8.10;99.90;;;;;;5051748;28;20092;-72
2022/01/27 09:59:34;;;;;;;22.05;5.55;;;8.20;99.90;;;;;;5052563;28;20116;-72
2022/01/27 10:02:04;;;;;;;21.75;5.63;;;8.20;99.90;;;;;;5051362;28;20050;-71
2022/01/27 10:04:49;;;;;;;13.43;4.70;;;8.20;99.90;;;;;;5068938;28;20053;-71
2022/01/27 10:07:19;;;;;;;12.43;3.75;;;8.30;99.90;;;;;;5047941;28;20087;-72
2022/01/27 10:10:01;;;;;;;14.48;4.53;;;8.30;99.90;;;;;;5037942;28;20496;-72
2022/01/27 10:12:31;;;;;;;14.40;4.60;;;8.40;99.90;;;;;;5068376;28;20045;-70
2022/01/27 10:15:06;;;;;;;18.83;5.97;;;8.40;99.90;;;;;;5052732;28;20053;-72
2022/01/27 10:17:37;;;;;;;15.38;5.25;;;8.40;99.90;;;;;;5067389;28;20072;-71
2022/01/27 10:20:16;;;;;;;19.98;4.63;;;8.50;99.90;;;;;;5050513;28;20057;-71
2022/01/27 10:22:43;;;;;;;21.20;4.72;;;8.50;99.90;;;;;;5054376;28;20077;-71
2022/01/27 10:25:20;;;;;;;17.40;4.47;;;8.50;99.90;;;;;;5051198;28;20057;-72
2022/01/27 10:27:57;;;;;;;24.85;4.50;;;8.50;99.90;;;;;;5052779;28;20048;-72
2022/01/27 10:33:13;;;;;;;23.88;5.28;;;8.60;99.90;;;;;;5051973;28;20056;-71
2022/01/27 10:35:40;;;;;;;18.90;5.60;;;8.70;99.90;;;;;;5067419;28;20049;-71
2022/01/27 10:38:08;;;;;;;20.38;4.70;;;8.70;99.90;;;;;;5052753;28;20114;-72
2022/01/27 10:40:37;;;;;;;22.02;5.18;;;8.80;99.90;;;;;;5052741;28;20049;-73
2022/01/27 10:43:14;;;;;;;21.43;5.13;;;8.90;99.90;;;;;;5051796;28;20135;-73
2022/01/27 10:46:05;;;;;;;16.23;6.18;;;8.90;99.90;;;;;;5050503;28;20056;-71
2022/01/27 10:48:34;;;;;;;17.15;4.68;;;9.00;99.90;;;;;;5065129;28;20064;-71
2022/01/27 10:51:07;;;;;;;13.45;4.25;;;9.00;99.90;;;;;;5051172;28;20512;-71
2022/01/27 10:53:56;;;;;;;20.83;4.75;;;9.00;99.90;;;;;;5051693;28;20045;-72
2022/01/27 10:56:26;;;;;;;28.13;4.97;;;9.00;99.90;;;;;;5064140;28;20056;-70
2022/01/27 10:58:57;;;;;;;14.20;4.20;;;9.00;99.90;;;;;;5051668;28;20253;-71
2022/01/27 11:01:33;;;;;;;18.13;4.30;;;9.00;99.90;;;;;;5067962;28;20449;-72
2022/01/27 11:04:02;;;;;;;20.13;5.43;;;9.00;99.90;;;;;;5050892;28;20084;-71
2022/01/27 11:06:32;;;;;;;18.50;4.82;;;9.00;99.90;;;;;;5049527;28;20106;-70
2022/01/27 11:09:05;;;;;;;21.70;5.07;;;9.10;99.90;;;;;;5052443;28;20048;-72
2022/01/27 11:11:33;;;;;;;19.20;5.15;;;9.10;99.90;;;;;;5067381;28;20060;-72
2022/01/27 11:14:00;;;;;;;14.60;4.40;;;9.20;99.90;;;;;;5051528;28;20111;-71
2022/01/27 11:16:34;;;;;;;19.65;4.25;;;9.20;99.90;;;;;;5051751;28;20045;-72
2022/01/27 11:19:17;;;;;;;22.02;5.93;;;9.20;99.90;;;;;;5051280;28;20099;-71
2022/01/27 11:21:49;;;;;;;16.48;4.40;;;9.20;99.90;;;;;;5048558;28;20052;-72
2022/01/27 11:24:24;;;;;;;19.15;5.85;;;9.20;99.90;;;;;;5051087;28;20064;-71
2022/01/27 11:26:54;;;;;;;16.98;4.80;;;9.20;99.90;;;;;;5050245;28;20079;-70
2022/01/27 11:29:22;;;;;;;14.03;5.00;;;9.10;99.90;;;;;;5054735;28;20435;-71
2022/01/27 11:32:22;;;;;;;28.05;5.10;;;9.20;99.90;;;;;;5050367;28;20539;-70
2022/01/27 11:34:51;;;;;;;16.42;4.53;;;9.20;99.90;;;;;;5045988;28;20455;-72
2022/01/27 11:37:31;;;;;;;23.30;6.18;;;9.20;99.90;;;;;;5050614;28;20083;-70
2022/01/27 11:40:04;;;;;;;21.20;5.07;;;9.20;99.90;;;;;;5050484;28;20493;-71
2022/01/27 11:43:06;;;;;;;15.52;4.90;;;9.20;99.90;;;;;;5065949;28;20501;-71
2022/01/27 11:45:38;;;;;;;17.65;4.00;;;9.20;99.90;;;;;;5019511;28;20374;-71
2022/01/27 11:48:10;;;;;;;23.17;5.72;;;9.30;99.90;;;;;;5050799;28;20052;-72
2022/01/27 11:50:49;;;;;;;22.95;5.30;;;9.30;99.90;;;;;;5051261;28;20106;-71
2022/01/27 11:53:36;;;;;;;16.10;5.03;;;9.30;99.90;;;;;;5050606;28;20095;-73
2022/01/27 11:56:05;;;;;;;21.92;5.00;;;9.30;99.90;;;;;;5046021;28;20489;-73
2022/01/27 11:58:43;;;;;;;22.42;5.03;;;9.30;99.90;;;;;;5049934;28;20142;-72
2022/01/27 12:01:14;;;;;;;16.60;3.65;;;9.30;99.90;;;;;;5066510;28;20075;-71
2022/01/27 12:04:11;;;;;;;11.68;3.08;;;9.20;99.90;;;;;;5049571;28;20049;-73
2022/01/27 12:06:39;;;;;;;27.98;6.00;;;9.30;99.90;;;;;;5051745;28;20390;-73
2022/01/27 12:09:29;;;;;;;14.68;4.57;;;9.30;99.90;;;;;;5049081;28;20049;-72
2022/01/27 12:11:59;;;;;;;14.30;4.22;;;9.30;99.90;;;;;;5050809;28;20132;-71
2022/01/27 12:14:30;;;;;;;25.15;5.28;;;9.30;99.90;;;;;;5066865;28;20049;-71
2022/01/27 12:17:16;;;;;;;;;;;9.30;99.90;;;;;;5049558;28;20160;-70
2022/01/27 12:19:52;;;;;;;15.07;3.25;;;9.30;99.90;;;;;;5050037;28;19929;-72
2022/01/27 12:22:20;;;;;;;24.63;4.43;;;9.30;99.90;;;;;;5053408;28;20081;-70
2022/01/27 12:24:54;;;;;;;14.23;4.32;;;9.20;99.90;;;;;;5048858;28;20525;-72
2022/01/27 12:27:22;;;;;;;22.17;4.03;;;9.20;99.90;;;;;;5050974;28;20099;-71
2022/01/27 12:29:51;;;;;;;20.05;4.75;;;9.20;99.90;;;;;;5050072;28;20496;-71
2022/01/27 12:32:23;;;;;;;25.10;3.72;;;9.20;99.90;;;;;;5049739;28;20467;-72
2022/01/27 12:34:53;;;;;;;18.08;3.78;;;9.20;99.90;;;;;;5049750;28;20052;-70
2022/01/27 12:37:23;;;;;;;17.17;4.72;;;9.30;99.90;;;;;;5065949;28;20060;-71
2022/01/27 12:39:52;;;;;;;18.43;5.20;;;9.30;99.90;;;;;;5049492;28;20519;-71
2022/01/27 12:42:19;;;;;;;17.45;4.80;;;9.30;99.90;;;;;;5050783;28;20371;-71
2022/01/27 12:44:57;;;;;;;16.88;4.28;;;9.30;99.90;;;;;;5052936;28;20107;-72
2022/01/27 12:47:25;;;;;;;15.55;4.10;;;9.30;99.90;;;;;;5053615;28;20448;-72
2022/01/27 12:50:03;;;;;;;14.48;4.15;;;9.40;99.90;;;;;;5042710;28;20053;-70
2022/01/27 12:52:32;;;;;;;17.30;4.05;;;9.40;99.90;;;;;;5053003;28;20560;-71
2022/01/27 12:54:59;;;;;;;16.05;4.57;;;9.60;99.90;;;;;;5053687;28;20127;-71
2022/01/27 12:57:28;;;;;;;19.20;4.90;;;9.60;99.90;;;;;;5054475;28;20055;-71
2022/01/27 12:59:56;;;;;;;15.15;3.67;;;9.80;99.90;;;;;;5053296;28;20130;-72
2022/01/27 13:02:24;;;;;;;16.25;3.97;;;9.80;99.90;;;;;;5053029;28;20106;-71
2022/01/27 13:04:55;;;;;;;20.50;4.65;;;9.80;99.90;;;;;;5068991;28;20114;-71
2022/01/27 13:07:23;;;;;;;15.43;4.20;;;9.70;99.90;;;;;;5070398;28;20133;-72
2022/01/27 13:09:59;;;;;;;14.05;3.78;;;9.70;99.90;;;;;;5053273;28;20052;-73
2022/01/27 13:12:31;;;;;;;18.35;4.45;;;9.60;99.90;;;;;;5052270;28;20094;-72
2022/01/27 13:15:05;;;;;;;18.42;4.13;;;9.70;99.90;;;;;;5053156;28;20103;-72